Time;durP1;ratioP1;P1;durP2;ratioP2;P2;SDS_P1;SDS_P2;PMS_P1;PMS_P2;Temp;Humidity;BMP_temperature;BMP_pressure;BME280_temperature;BME280_humidity;BME280_pressure;Samples;Min_cycle;Max_cycle;Signal;HPM_P1;HPM_P2
2024/04/12 00:00:47;;;;;;;7.63;3.13;;;;;;;;;;5024349;27;87310;-81
2024/04/12 00:04:02;;;;;;;6.43;3.10;;;;;;;;;;4998508;28;88687;-81
2024/04/12 00:06:39;;;;;;;10.85;3.60;;;;;;;;;;5041156;28;92029;-81
2024/04/12 00:09:17;;;;;;;7.45;3.08;;;;;;;;;;5021443;28;88397;-81
2024/04/12 00:12:25;;;;;;;10.23;3.35;;;;;;;;;;5038506;27;90590;-80
2024/04/12 00:15:16;;;;;;;9.52;3.20;;;;;;;;;;5018693;27;87332;-80
2024/04/12 00:17:55;;;;;;;8.27;3.28;;;;;;;;;;5015163;27;86405;-81
2024/04/12 00:20:28;;;;;;;8.05;3.42;;;;;;;;;;5012554;28;87510;-83
2024/04/12 00:23:55;;;;;;;8.10;3.28;;;;;;;;;;5022040;28;86239;-80
2024/04/12 00:26:16;;;;;;;8.63;3.00;;;;;;;;;;5029647;27;90266;-81
2024/04/12 00:29:41;;;;;;;7.70;3.28;;;;;;;;;;5027874;28;86592;-80
2024/04/12 00:32:35;;;;;;;9.05;2.80;;;;;;;;;;4908708;28;89945;-82
2024/04/12 00:35:06;;;;;;;8.45;3.15;;;;;;;;;;4910840;28;89674;-82
2024/04/12 00:41:11;;;;;;;6.78;2.83;;;;;;;;;;5723873;22;90431;-82
2024/04/12 00:48:07;;;;;;;6.75;2.65;;;;;;;;;;4978694;28;86989;-82
2024/04/12 01:03:31;;;;;;;5.47;2.40;;;;;;;;;;4969400;28;93404;-82
2024/04/12 01:10:47;;;;;;;;;;;;;;;;;;;;;
2024/04/12 01:13:36;;;;;;;5.47;2.20;;;;;;;;;;4998141;27;89389;-85
2024/04/12 01:16:39;;;;;;;6.93;2.60;;;;;;;;;;5082477;27;89073;-84
2024/04/12 01:19:34;;;;;;;5.60;2.50;;;;;;;;;;5094192;27;89406;-83
2024/04/12 01:22:32;;;;;;;6.82;2.30;;;;;;;;;;5066016;27;93007;-84
2024/04/12 01:25:05;;;;;;;5.07;2.10;;;;;;;;;;5034949;27;88961;-82
2024/04/12 01:27:40;;;;;;;7.38;2.42;;;;;;;;;;5046381;27;86358;-85
2024/04/12 01:30:39;;;;;;;5.22;2.15;;;;;;;;;;5137931;22;87113;-83
2024/04/12 01:33:19;;;;;;;6.97;2.42;;;;;;;;;;4990128;28;87060;-83
2024/04/12 01:37:03;;;;;;;5.80;2.13;;;;;;;;;;4962188;28;91272;-83
2024/04/12 01:39:34;;;;;;;5.30;2.47;;;;;;;;;;4987914;28;88519;-83
2024/04/12 01:42:07;;;;;;;5.05;2.28;;;;;;;;;;4959804;28;90893;-83
2024/04/12 01:44:38;;;;;;;5.43;2.10;;;;;;;;;;5527990;22;90194;-81
2024/04/12 01:47:14;;;;;;;6.07;2.28;;;;;;;;;;5054118;27;86335;-81
2024/04/12 01:49:43;;;;;;;4.53;2.03;;;;;;;;;;4988008;27;86401;-82
2024/04/12 01:52:25;;;;;;;5.05;2.00;;;;;;;;;;5058304;27;88947;-84
2024/04/12 01:55:05;;;;;;;6.20;2.00;;;;;;;;;;5055149;27;86658;-84
2024/04/12 01:57:41;;;;;;;5.10;1.88;;;;;;;;;;5032085;27;89196;-86
2024/04/12 02:00:11;;;;;;;4.63;1.98;;;;;;;;;;5058203;27;88930;-82
2024/04/12 02:06:04;;;;;;;4.25;1.83;;;;;;;;;;5050029;27;86413;-83
2024/04/12 02:08:44;;;;;;;5.00;1.95;;;;;;;;;;4995239;27;88731;-83
2024/04/12 02:21:19;;;;;;;4.47;2.00;;;;;;;;;;4898245;28;89552;-85
2024/04/12 02:24:02;;;;;;;6.03;1.73;;;;;;;;;;4870643;28;88996;-84
2024/04/12 02:27:06;;;;;;;4.78;2.00;;;;;;;;;;4830310;29;88902;-85
2024/04/12 02:29:41;;;;;;;3.75;1.90;;;;;;;;;;4864789;28;86578;-83
2024/04/12 02:32:15;;;;;;;5.93;1.95;;;;;;;;;;4837138;28;86295;-83
2024/04/12 02:38:17;;;;;;;4.30;1.92;;;;;;;;;;5124225;23;89513;-82
2024/04/12 02:45:05;;;;;;;5.00;1.77;;;;;;;;;;4804060;29;88762;-83
2024/04/12 02:47:47;;;;;;;3.25;1.67;;;;;;;;;;4837189;28;89046;-84
2024/04/12 02:50:23;;;;;;;3.95;1.70;;;;;;;;;;4932512;28;87719;-81
2024/04/12 02:52:54;;;;;;;3.78;1.67;;;;;;;;;;4908565;28;89229;-82
2024/04/12 02:56:06;;;;;;;2.88;1.75;;;;;;;;;;5336705;23;90055;-86
2024/04/12 02:59:05;;;;;;;4.30;1.75;;;;;;;;;;4926043;28;86299;-85
2024/04/12 03:01:54;;;;;;;3.63;1.70;;;;;;;;;;5324155;23;89664;-85
2024/04/12 03:05:00;;;;;;;4.93;1.60;;;;;;;;;;4962868;28;91916;-86
2024/04/12 03:08:00;;;;;;;6.55;1.80;;;;;;;;;;5059267;23;89315;-84
2024/04/12 03:15:10;;;;;;;2.97;1.30;;;;;;;;;;5578529;23;89361;31
2024/04/12 03:18:03;;;;;;;3.40;1.52;;;;;;;;;;5748050;22;89627;31
2024/04/12 03:21:06;;;;;;;2.40;1.30;;;;;;;;;;4856999;28;87640;-87
2024/04/12 03:27:28;;;;;;;3.10;1.45;;;;;;;;;;4896874;28;89741;-83
2024/04/12 03:30:13;;;;;;;5.65;1.63;;;;;;;;;;4843149;28;88647;-81
2024/04/12 03:35:54;;;;;;;4.70;1.52;;;;;;;;;;4939322;28;90036;-84
2024/04/12 03:45:30;;;;;;;4.50;1.55;;;;;;;;;;5222068;23;89756;-83
2024/04/12 03:48:04;;;;;;;2.75;1.50;;;;;;;;;;4945273;28;92695;-84
2024/04/12 03:50:32;;;;;;;;;;;;;;;;;;4967234;28;88820;-83
2024/04/12 03:53:30;;;;;;;3.88;1.40;;;;;;;;;;4969957;28;88721;-81
2024/04/12 03:56:03;;;;;;;3.03;1.40;;;;;;;;;;4976352;28;86531;-82
2024/04/12 03:58:31;;;;;;;2.80;1.30;;;;;;;;;;5017469;28;90205;-83
2024/04/12 04:01:06;;;;;;;5.30;1.60;;;;;;;;;;4966413;28;86184;-83
2024/04/12 04:04:10;;;;;;;3.03;1.40;;;;;;;;;;4974293;28;88189;-82
2024/04/12 04:07:15;;;;;;;2.88;1.50;;;;;;;;;;4933975;28;88809;-83
2024/04/12 04:10:15;;;;;;;5.78;1.80;;;;;;;;;;4958257;28;88010;-83
2024/04/12 04:12:49;;;;;;;3.78;1.50;;;;;;;;;;4919054;28;87143;-83
2024/04/12 04:15:17;;;;;;;3.17;1.45;;;;;;;;;;4926441;28;89390;-82
2024/04/12 04:17:48;;;;;;;3.85;1.50;;;;;;;;;;4926812;28;88228;-82
2024/04/12 04:20:17;;;;;;;3.65;1.50;;;;;;;;;;4906740;28;89587;-84
2024/04/12 04:23:02;;;;;;;5.20;1.80;;;;;;;;;;4956658;28;87299;-85
2024/04/12 04:25:33;;;;;;;2.85;1.60;;;;;;;;;;4957969;28;86112;-84
2024/04/12 04:28:40;;;;;;;4.57;1.60;;;;;;;;;;4937863;28;91438;-85
2024/04/12 04:31:07;;;;;;;3.70;1.40;;;;;;;;;;4961072;28;87666;-83
2024/04/12 04:33:35;;;;;;;;;;;;;;;;;;4986462;28;87320;-82
2024/04/12 04:36:11;;;;;;;3.03;1.35;;;;;;;;;;4955881;28;90028;-85
2024/04/12 04:38:39;;;;;;;5.00;1.75;;;;;;;;;;5019093;28;86885;-85
2024/04/12 04:41:11;;;;;;;5.13;1.48;;;;;;;;;;5003238;28;86138;-83
2024/04/12 04:43:38;;;;;;;3.88;1.55;;;;;;;;;;4935157;28;89186;-84
2024/04/12 04:48:53;;;;;;;5.35;1.73;;;;;;;;;;4990788;28;86459;-83
2024/04/12 04:51:22;;;;;;;4.03;1.50;;;;;;;;;;4950241;28;86616;-84
2024/04/12 04:54:56;;;;;;;8.73;1.98;;;;;;;;;;4920661;28;92050;-83
2024/04/12 04:57:29;;;;;;;6.25;2.03;;;;;;;;;;4906880;28;89266;-82
2024/04/12 05:00:58;;;;;;;5.18;2.17;;;;;;;;;;4918965;28;92064;-83
2024/04/12 05:06:41;;;;;;;6.32;2.15;;;;;;;;;;4930229;28;92356;-84
2024/04/12 05:09:13;;;;;;;6.00;2.20;;;;;;;;;;5178517;23;89514;-85
2024/04/12 05:11:49;;;;;;;5.60;2.10;;;;;;;;;;4985263;23;88450;-85
2024/04/12 05:17:24;;;;;;;6.70;2.20;;;;;;;;;;4954651;28;88084;-83
2024/04/12 05:19:53;;;;;;;7.07;2.10;;;;;;;;;;4883524;28;87651;-84
2024/04/12 05:33:47;;;;;;;;;;;;;;;;;;;;;
2024/04/12 05:40:53;;;;;;;6.88;2.13;;;;;;;;;;5609506;23;91403;-84
2024/04/12 05:43:38;;;;;;;4.57;2.03;;;;;;;;;;4985524;23;88786;-85
2024/04/12 05:46:09;;;;;;;5.15;2.05;;;;;;;;;;4924404;28;95914;-84
2024/04/12 05:49:09;;;;;;;4.05;2.08;;;;;;;;;;4942784;28;87092;-84
2024/04/12 05:52:25;;;;;;;5.32;2.28;;;;;;;;;;5056695;23;87796;-83
2024/04/12 05:55:10;;;;;;;6.38;2.33;;;;;;;;;;4986463;28;85844;-84
2024/04/12 05:58:27;;;;;;;4.63;2.17;;;;;;;;;;4898622;28;87175;-83
2024/04/12 06:01:00;;;;;;;4.63;2.15;;;;;;;;;;4987267;28;91221;-82
2024/04/12 06:03:28;;;;;;;5.20;2.10;;;;;;;;;;4957936;28;90301;-82
2024/04/12 06:09:50;;;;;;;;;;;;;;;;;;4981204;28;88296;-84
2024/04/12 06:12:24;;;;;;;6.15;2.75;;;;;;;;;;4951213;28;87057;-83
2024/04/12 06:14:52;;;;;;;4.28;2.28;;;;;;;;;;4959909;28;89113;-83
2024/04/12 06:18:11;;;;;;;6.35;2.67;;;;;;;;;;4932536;28;88462;-83
2024/04/12 06:21:51;;;;;;;4.65;2.28;;;;;;;;;;4915709;28;86103;-81
2024/04/12 06:28:22;;;;;;;7.20;3.20;;;;;;;;;;4959718;28;89950;-83
2024/04/12 06:31:34;;;;;;;5.35;2.42;;;;;;;;;;4969840;28;92130;-82
2024/04/12 06:34:06;;;;;;;5.55;2.55;;;;;;;;;;4963040;28;93788;-83
2024/04/12 06:36:45;;;;;;;5.30;2.60;;;;;;;;;;4960016;28;89401;-82
2024/04/12 06:39:34;;;;;;;5.80;2.40;;;;;;;;;;4870988;28;87713;-82
2024/04/12 06:42:21;;;;;;;6.05;2.80;;;;;;;;;;4821256;29;91127;-83
2024/04/12 06:45:15;;;;;;;5.80;2.38;;;;;;;;;;4850071;28;88373;-82
2024/04/12 06:49:07;;;;;;;7.00;2.60;;;;;;;;;;4853928;29;93197;-84
2024/04/12 06:54:45;;;;;;;5.97;2.70;;;;;;;;;;4866448;29;85823;-83
2024/04/12 07:00:52;;;;;;;7.53;2.95;;;;;;;;;;4840330;29;94174;-85
2024/04/12 07:03:56;;;;;;;5.70;2.78;;;;;;;;;;4833120;29;87340;-84
2024/04/12 07:06:51;;;;;;;5.78;2.42;;;;;;;;;;4812465;29;94409;-82
2024/04/12 07:09:22;;;;;;;7.30;2.83;;;;;;;;;;4841254;29;86575;-83
2024/04/12 07:11:52;;;;;;;6.95;2.90;;;;;;;;;;4862504;29;87024;-83
2024/04/12 07:14:22;;;;;;;8.38;2.90;;;;;;;;;;4808631;29;87080;-85
2024/04/12 07:17:20;;;;;;;6.95;2.80;;;;;;;;;;4938226;28;88013;-86
2024/04/12 07:19:52;;;;;;;7.53;3.00;;;;;;;;;;4928015;28;89199;-82
2024/04/12 07:22:20;;;;;;;7.90;3.28;;;;;;;;;;4922384;28;90730;-84
2024/04/12 07:24:51;;;;;;;8.02;3.40;;;;;;;;;;5159209;23;88503;-84
2024/04/12 07:28:00;;;;;;;9.20;4.13;;;;;;;;;;5023698;28;86573;-85
2024/04/12 07:31:19;;;;;;;8.45;3.88;;;;;;;;;;4978172;28;91944;-88
2024/04/12 07:34:05;;;;;;;9.95;3.67;;;;;;;;;;4953006;28;89288;-87
2024/04/12 07:37:28;;;;;;;8.95;3.67;;;;;;;;;;4998929;28;86705;-83
2024/04/12 07:40:34;;;;;;;9.20;3.58;;;;;;;;;;4993243;28;89311;-82
2024/04/12 07:43:55;;;;;;;8.90;3.40;;;;;;;;;;4827437;28;86402;-83
2024/04/12 07:46:49;;;;;;;8.88;3.38;;;;;;;;;;4797163;29;95538;-84
2024/04/12 07:49:36;;;;;;;;;;;;;;;;;;;;;
2024/04/12 07:52:50;;;;;;;7.28;3.10;;;;;;;;;;4852868;28;90734;-84
2024/04/12 07:55:35;;;;;;;11.32;3.38;;;;;;;;;;4838366;28;87262;-82
2024/04/12 07:58:21;;;;;;;8.35;3.45;;;;;;;;;;4849021;28;91350;-80
2024/04/12 08:00:51;;;;;;;8.45;3.70;;;;;;;;;;4817433;29;89513;-81
2024/04/12 08:03:25;;;;;;;8.23;2.90;;;;;;;;;;4847348;28;86424;-79
2024/04/12 08:06:03;;;;;;;8.60;3.28;;;;;;;;;;4845133;28;88813;-79
2024/04/12 08:12:23;;;;;;;8.30;2.83;;;;;;;;;;4912209;23;87940;-84
2024/04/12 08:15:50;;;;;;;8.95;3.22;;;;;;;;;;5110749;23;89935;-84
2024/04/12 08:25:43;;;;;;;;;;;;;;;;;;;;;
2024/04/12 08:31:47;;;;;;;7.60;2.67;;;;;;;;;;5747350;23;90353;-86
2024/04/12 08:35:06;;;;;;;6.55;2.65;;;;;;;;;;5519503;22;92965;-90
2024/04/12 08:42:10;;;;;;;6.50;2.50;;;;;;;;;;5023542;22;89565;31
2024/04/12 08:45:21;;;;;;;6.93;2.40;;;;;;;;;;4899476;28;92048;-89
2024/04/12 09:04:14;;;;;;;6.15;2.35;;;;;;;;;;5202546;22;89564;-88
2024/04/12 09:08:17;;;;;;;6.30;2.40;;;;;;;;;;4923975;28;89354;-86
2024/04/12 09:11:05;;;;;;;6.72;2.33;;;;;;;;;;4890874;28;88000;-82
2024/04/12 09:13:36;;;;;;;7.28;2.60;;;;;;;;;;4877906;28;88194;-80
2024/04/12 09:17:00;;;;;;;5.72;2.08;;;;;;;;;;4872810;28;90574;-81
2024/04/12 09:19:38;;;;;;;7.95;2.10;;;;;;;;;;4898324;28;86408;-86
2024/04/12 09:22:54;;;;;;;4.40;1.92;;;;;;;;;;5415374;23;93114;-80
2024/04/12 09:32:52;;;;;;;5.00;2.00;;;;;;;;;;4821940;29;90831;-81
2024/04/12 09:35:35;;;;;;;7.47;2.10;;;;;;;;;;4812259;29;90944;-80
2024/04/12 09:38:06;;;;;;;7.78;2.08;;;;;;;;;;4794761;29;90671;-80
2024/04/12 09:40:40;;;;;;;9.23;2.42;;;;;;;;;;4809135;29;87621;-81
2024/04/12 09:43:36;;;;;;;6.65;2.00;;;;;;;;;;4817324;29;87501;-82
2024/04/12 09:46:10;;;;;;;5.97;2.10;;;;;;;;;;4804083;29;94362;-81
2024/04/12 10:37:23;;;;;;;6.57;2.20;;;;;;;;;;4833179;29;86948;-79
2024/04/12 10:39:17;;;;;;;6.13;2.00;;;;;;;;;;4824366;29;88711;-79
2024/04/12 10:42:12;;;;;;;5.95;1.90;;;;;;;;;;4772832;29;93260;-80
2024/04/12 10:45:07;;;;;;;6.28;2.03;;;;;;;;;;4835991;29;86840;-81
2024/04/12 10:47:45;;;;;;;4.30;1.90;;;;;;;;;;4812900;29;86821;-80
2024/04/12 10:50:13;;;;;;;6.60;2.00;;;;;;;;;;4854564;29;86632;-81
2024/04/12 10:52:42;;;;;;;4.50;1.80;;;;;;;;;;4857731;28;86202;-82
2024/04/12 10:55:33;;;;;;;6.80;2.00;;;;;;;;;;4980638;28;86591;-80
2024/04/12 10:58:33;;;;;;;3.20;1.60;;;;;;;;;;4933229;28;91381;-80
2024/04/12 11:01:08;;;;;;;5.15;1.70;;;;;;;;;;4911983;28;89341;-83
2024/04/12 11:03:38;;;;;;;4.32;1.67;;;;;;;;;;4945136;28;90227;-80
2024/04/12 11:06:18;;;;;;;3.30;1.65;;;;;;;;;;4930717;28;87563;-80
2024/04/12 11:08:46;;;;;;;4.82;1.40;;;;;;;;;;4909658;28;86753;-83
2024/04/12 11:11:26;;;;;;;4.18;1.70;;;;;;;;;;4942029;28;86758;-82
2024/04/12 11:14:27;;;;;;;4.35;1.63;;;;;;;;;;4895282;28;91460;-81
2024/04/12 11:31:14;;;;;;;8.00;3.70;;;;;;;;;;4955737;28;86877;-84
2024/04/12 11:33:45;;;;;;;7.68;3.42;;;;;;;;;;4919811;28;91173;-83
2024/04/12 11:36:19;;;;;;;7.32;2.97;;;;;;;;;;4920418;28;86642;-81
2024/04/12 11:38:53;;;;;;;8.70;3.38;;;;;;;;;;4932556;28;86367;-81
2024/04/12 11:41:30;;;;;;;7.10;3.13;;;;;;;;;;4926254;28;88478;-82
2024/04/12 11:44:03;;;;;;;8.05;3.28;;;;;;;;;;4956608;28;86830;-82
2024/04/12 11:46:45;;;;;;;7.75;3.03;;;;;;;;;;4933039;28;86711;-81
2024/04/12 11:49:13;;;;;;;6.78;2.72;;;;;;;;;;4904723;28;86462;-82
2024/04/12 11:51:40;;;;;;;7.53;2.58;;;;;;;;;;4928871;28;86876;-80
2024/04/12 11:54:13;;;;;;;6.35;2.28;;;;;;;;;;4929340;28;87162;-80
2024/04/12 11:56:44;;;;;;;6.80;2.20;;;;;;;;;;4927698;28;89765;-81
2024/04/12 11:59:16;;;;;;;24.23;4.05;;;;;;;;;;4927933;28;86518;-82
2024/04/12 12:01:45;;;;;;;;;;;;;;;;;;4969001;28;87765;-77
2024/04/12 12:04:12;;;;;;;9.32;2.28;;;;;;;;;;4962834;28;86630;-79
2024/04/12 12:06:41;;;;;;;8.45;2.00;;;;;;;;;;4962480;28;86500;-81
2024/04/12 12:16:25;;;;;;;4.57;1.40;;;;;;;;;;4949543;28;90921;-86
2024/04/12 12:32:11;;;;;;;4.75;1.20;;;;;;;;;;4899197;28;89295;-88
2024/04/12 12:34:50;;;;;;;3.00;1.20;;;;;;;;;;4897250;28;89437;-89
2024/04/12 12:37:46;;;;;;;3.28;1.10;;;;;;;;;;4902849;28;86423;-87
2024/04/12 12:40:45;;;;;;;4.82;1.30;;;;;;;;;;4864054;28;90862;-89
2024/04/12 12:43:20;;;;;;;;;;;;;;;;;;4892409;28;88272;-87
2024/04/12 12:46:36;;;;;;;3.35;1.00;;;;;;;;;;4870447;28;87305;-88
2024/04/12 12:49:46;;;;;;;4.72;1.00;;;;;;;;;;4857733;28;87828;-87
2024/04/12 12:52:50;;;;;;;5.93;1.20;;;;;;;;;;4834018;28;91608;-87
2024/04/12 12:55:28;;;;;;;4.47;1.02;;;;;;;;;;4885447;28;90072;-89
2024/04/12 12:58:10;;;;;;;4.20;1.00;;;;;;;;;;4860790;28;92768;-81
2024/04/12 13:10:19;;;;;;;2.30;1.00;;;;;;;;;;4433155;23;89235;-90
2024/04/12 13:13:26;;;;;;;1.50;0.80;;;;;;;;;;4959781;28;89850;-86
2024/04/12 13:16:36;;;;;;;;;;;;;;;;;;;;;
2024/04/12 13:19:50;;;;;;;2.88;0.90;;;;;;;;;;5020248;23;87340;-87
2024/04/12 13:26:22;;;;;;;3.05;1.02;;;;;;;;;;4954775;23;89603;-89
2024/04/12 13:29:12;;;;;;;3.53;1.02;;;;;;;;;;4923871;28;89473;-85
2024/04/12 13:32:08;;;;;;;3.38;1.05;;;;;;;;;;4908627;28;89201;-86
2024/04/12 13:35:58;;;;;;;;;;;;;;;;;;;;;
2024/04/12 13:42:49;;;;;;;3.53;1.33;;;;;;;;;;5117544;23;89344;-86
2024/04/12 13:57:02;;;;;;;2.50;1.25;;;;;;;;;;5249235;22;89994;31
2024/04/12 14:00:00;;;;;;;4.53;1.20;;;;;;;;;;4872950;28;86934;-82
2024/04/12 14:02:46;;;;;;;2.90;1.20;;;;;;;;;;5206491;22;89327;-85
2024/04/12 14:09:04;;;;;;;3.30;1.13;;;;;;;;;;4992932;28;86795;-87
2024/04/12 14:11:53;;;;;;;3.65;1.13;;;;;;;;;;4972370;28;89428;-86
2024/04/12 14:18:48;;;;;;;4.47;1.10;;;;;;;;;;5027662;22;88290;-90
2024/04/12 14:21:48;;;;;;;3.28;1.00;;;;;;;;;;4936901;23;88703;-85
2024/04/12 14:25:01;;;;;;;2.42;0.98;;;;;;;;;;4840419;28;89536;-87
2024/04/12 14:28:00;;;;;;;4.43;0.90;;;;;;;;;;4830543;28;89947;-85
2024/04/12 14:30:58;;;;;;;2.88;0.80;;;;;;;;;;4813576;29;91619;-88
2024/04/12 14:34:20;;;;;;;1.83;1.00;;;;;;;;;;4926604;28;90351;-86
2024/04/12 14:37:21;;;;;;;2.30;0.95;;;;;;;;;;4957021;23;88616;-86
2024/04/12 14:40:34;;;;;;;2.33;0.85;;;;;;;;;;5000073;23;87587;-85
2024/04/12 14:47:13;;;;;;;3.28;1.10;;;;;;;;;;5005158;23;88206;-89
2024/04/12 14:53:46;;;;;;;3.13;1.00;;;;;;;;;;5006133;28;86993;-87
2024/04/12 14:56:48;;;;;;;4.32;0.90;;;;;;;;;;4968516;22;92979;-90
2024/04/12 14:59:58;;;;;;;2.83;1.00;;;;;;;;;;4957287;28;89547;-87
2024/04/12 15:53:30;;;;;;;3.65;1.35;;;;;;;;;;5148916;27;87959;-87
2024/04/12 16:13:36;;;;;;;5.00;1.45;;;;;;;;;;5451056;22;87869;-88
2024/04/12 16:17:04;;;;;;;4.95;1.30;;;;;;;;;;5021461;22;89525;-88
2024/04/12 16:20:30;;;;;;;3.33;1.20;;;;;;;;;;5080019;27;85782;-87
2024/04/12 16:23:54;;;;;;;;;;;;;;;;;;;;;
2024/04/12 16:27:39;;;;;;;3.15;1.30;;;;;;;;;;5126190;22;88439;-85
2024/04/12 16:30:27;;;;;;;4.32;1.50;;;;;;;;;;5080878;27;85789;-85
2024/04/12 16:33:37;;;;;;;4.03;1.60;;;;;;;;;;5718037;22;88291;-86
2024/04/12 16:39:40;;;;;;;4.40;1.50;;;;;;;;;;5139047;22;87932;-85
2024/04/12 16:42:37;;;;;;;4.05;1.50;;;;;;;;;;5079292;27;89342;-86
2024/04/12 16:45:54;;;;;;;4.22;1.35;;;;;;;;;;5092451;27;87037;-87
2024/04/12 16:49:02;;;;;;;3.80;1.40;;;;;;;;;;5110775;27;88935;-86
2024/04/12 16:55:53;;;;;;;4.72;1.38;;;;;;;;;;5254217;22;88022;-86
2024/04/12 16:59:05;;;;;;;5.38;1.30;;;;;;;;;;5010988;28;86609;-86
2024/04/12 17:02:02;;;;;;;4.47;1.50;;;;;;;;;;5073087;27;87942;-86
2024/04/12 17:04:58;;;;;;;5.68;1.52;;;;;;;;;;5043560;28;87965;-87
2024/04/12 17:07:40;;;;;;;3.03;1.30;;;;;;;;;;5042958;27;88365;-86
2024/04/12 17:10:30;;;;;;;4.07;1.38;;;;;;;;;;5016350;28;85540;-84
2024/04/12 17:13:20;;;;;;;4.47;1.50;;;;;;;;;;5019643;28;85426;-85
2024/04/12 17:15:52;;;;;;;4.90;1.60;;;;;;;;;;5039592;27;85786;-83
2024/04/12 17:18:30;;;;;;;3.40;1.40;;;;;;;;;;5039749;27;85697;-83
2024/04/12 17:21:18;;;;;;;3.53;1.40;;;;;;;;;;5016140;28;85517;-85
2024/04/12 17:24:16;;;;;;;3.50;1.60;;;;;;;;;;4992893;28;92015;-84
2024/04/12 17:26:54;;;;;;;6.43;1.60;;;;;;;;;;5012031;28;88053;-85
2024/04/12 17:29:27;;;;;;;;;;;;;;;;;;5013329;28;86757;-84
2024/04/12 17:32:05;;;;;;;4.43;1.52;;;;;;;;;;5011585;28;92193;-86
2024/04/12 17:34:41;;;;;;;3.25;1.35;;;;;;;;;;5005764;28;85066;-85
2024/04/12 17:37:15;;;;;;;4.82;1.77;;;;;;;;;;5019414;28;85252;-84
2024/04/12 17:39:52;;;;;;;3.92;1.73;;;;;;;;;;5012573;27;87298;-87
2024/04/12 17:42:30;;;;;;;4.60;1.90;;;;;;;;;;5036858;27;85875;-84
2024/04/12 17:45:06;;;;;;;3.83;1.63;;;;;;;;;;5047574;27;87149;-84
2024/04/12 17:47:39;;;;;;;5.45;2.17;;;;;;;;;;5030984;27;86028;-84
2024/04/12 17:50:16;;;;;;;6.30;2.75;;;;;;;;;;5018551;28;85440;-86
2024/04/12 17:52:52;;;;;;;6.07;2.60;;;;;;;;;;5041482;27;87335;-85
2024/04/12 17:55:28;;;;;;;5.70;2.30;;;;;;;;;;5022776;28;89868;-85
2024/04/12 17:58:04;;;;;;;4.93;2.08;;;;;;;;;;5033122;27;86614;-85
2024/04/12 18:00:36;;;;;;;5.13;2.10;;;;;;;;;;5000859;27;85408;-84
2024/04/12 18:03:13;;;;;;;5.45;2.55;;;;;;;;;;5026311;27;85137;-85
2024/04/12 18:05:47;;;;;;;5.95;2.50;;;;;;;;;;5052192;27;90654;-87
2024/04/12 18:08:24;;;;;;;6.15;2.60;;;;;;;;;;4998130;28;85283;-85
2024/04/12 18:11:11;;;;;;;5.53;2.38;;;;;;;;;;5013587;28;87159;-86
2024/04/12 18:13:43;;;;;;;6.03;3.08;;;;;;;;;;5014975;28;85547;-84
2024/04/12 18:16:19;;;;;;;6.07;2.80;;;;;;;;;;5018523;28;88512;-85
2024/04/12 18:18:54;;;;;;;7.07;3.10;;;;;;;;;;4980453;28;85798;-85
2024/04/12 18:21:45;;;;;;;6.50;3.20;;;;;;;;;;4991620;28;89450;-85
2024/04/12 18:24:28;;;;;;;6.85;3.75;;;;;;;;;;4977069;28;85846;-85
2024/04/12 18:27:05;;;;;;;6.88;3.70;;;;;;;;;;4974293;28;85416;-85
2024/04/12 18:29:45;;;;;;;7.65;3.70;;;;;;;;;;5004960;28;85737;-86
2024/04/12 18:32:25;;;;;;;6.63;3.60;;;;;;;;;;4992506;28;88629;-85
2024/04/12 18:35:04;;;;;;;8.48;3.72;;;;;;;;;;4993332;28;85419;-85
2024/04/12 18:46:19;;;;;;;6.60;3.90;;;;;;;;;;5013150;28;93875;-84
2024/04/12 18:49:03;;;;;;;6.65;4.13;;;;;;;;;;5006156;28;85295;-85
2024/04/12 18:51:38;;;;;;;7.53;4.20;;;;;;;;;;5050871;27;86554;-86
2024/04/12 18:54:11;;;;;;;7.20;4.10;;;;;;;;;;5023842;28;86796;-86
2024/04/12 18:56:53;;;;;;;8.32;4.85;;;;;;;;;;5003169;28;87102;-84
2024/04/12 18:59:36;;;;;;;8.38;4.90;;;;;;;;;;5026830;28;88456;-84
2024/04/12 19:02:13;;;;;;;7.15;5.00;;;;;;;;;;4987365;28;89991;-85
2024/04/12 19:04:59;;;;;;;8.45;4.90;;;;;;;;;;5037527;28;85951;-84
2024/04/12 19:07:37;;;;;;;9.15;5.07;;;;;;;;;;5023865;28;85770;-84
2024/04/12 19:10:30;;;;;;;8.85;5.57;;;;;;;;;;5000482;28;90385;-85
2024/04/12 19:13:05;;;;;;;8.13;5.40;;;;;;;;;;5028750;28;88833;-85
2024/04/12 19:15:41;;;;;;;8.10;5.50;;;;;;;;;;4997255;27;88560;-85
2024/04/12 19:18:11;;;;;;;8.30;5.95;;;;;;;;;;5052244;27;89088;-86
2024/04/12 19:20:52;;;;;;;9.18;5.75;;;;;;;;;;5012734;28;86125;-84
2024/04/12 19:23:32;;;;;;;8.32;5.95;;;;;;;;;;5015113;28;86659;-85
2024/04/12 19:26:33;;;;;;;9.55;5.85;;;;;;;;;;4997472;28;93277;-85
2024/04/12 19:29:11;;;;;;;9.48;6.05;;;;;;;;;;5015639;28;87397;-86
2024/04/12 19:31:41;;;;;;;8.43;6.13;;;;;;;;;;4988135;27;88079;-85
2024/04/12 19:34:14;;;;;;;8.70;6.20;;;;;;;;;;5017320;28;86341;-84
2024/04/12 19:36:44;;;;;;;9.40;6.32;;;;;;;;;;5023129;28;86000;-83
2024/04/12 19:39:23;;;;;;;11.85;7.35;;;;;;;;;;5009378;28;86961;-84
2024/04/12 19:41:55;;;;;;;10.18;6.65;;;;;;;;;;5003140;28;87808;-85
2024/04/12 19:44:29;;;;;;;9.07;5.95;;;;;;;;;;5029062;27;87886;-87
2024/04/12 19:47:27;;;;;;;13.43;7.03;;;;;;;;;;5024361;28;89148;-87
2024/04/12 19:50:10;;;;;;;10.52;7.53;;;;;;;;;;5019033;28;92870;-83
2024/04/12 19:52:47;;;;;;;9.20;6.63;;;;;;;;;;5048816;27;87676;-81
2024/04/12 19:55:26;;;;;;;8.93;6.78;;;;;;;;;;5013094;28;87523;-82
2024/04/12 19:58:14;;;;;;;10.57;6.57;;;;;;;;;;5007045;27;87986;-82
2024/04/12 20:00:57;;;;;;;9.85;6.47;;;;;;;;;;5019178;28;88548;-83
2024/04/12 20:03:31;;;;;;;9.40;6.35;;;;;;;;;;5013640;28;86909;-82
2024/04/12 20:06:05;;;;;;;8.50;6.15;;;;;;;;;;5032250;27;93452;-85
2024/04/12 20:08:39;;;;;;;8.93;6.22;;;;;;;;;;5073814;27;86896;-83
2024/04/12 20:11:12;;;;;;;8.95;6.50;;;;;;;;;;5029870;27;88275;-84
2024/04/12 20:13:49;;;;;;;10.15;6.43;;;;;;;;;;5014016;27;86391;-83
2024/04/12 20:16:22;;;;;;;9.90;6.40;;;;;;;;;;5015509;28;89125;-85
2024/04/12 20:18:51;;;;;;;9.30;6.30;;;;;;;;;;5019592;28;89804;-84
2024/04/12 20:21:21;;;;;;;8.57;5.72;;;;;;;;;;5040130;27;87688;-82
2024/04/12 20:23:52;;;;;;;10.70;5.88;;;;;;;;;;5043770;27;88804;-83
2024/04/12 20:26:25;;;;;;;8.20;5.68;;;;;;;;;;4994656;28;89755;-81
2024/04/12 20:29:08;;;;;;;9.65;6.30;;;;;;;;;;4995403;28;90149;-84
2024/04/12 20:38:03;;;;;;;9.90;5.70;;;;;;;;;;4941741;28;90299;-84
2024/04/12 20:40:40;;;;;;;9.57;6.22;;;;;;;;;;4950753;28;87059;-84
2024/04/12 20:43:19;;;;;;;8.93;5.60;;;;;;;;;;4910268;28;87155;-83
2024/04/12 20:46:02;;;;;;;8.25;5.65;;;;;;;;;;4940804;28;91192;-85
2024/04/12 20:48:37;;;;;;;8.30;5.75;;;;;;;;;;4987239;28;87603;-85
2024/04/12 20:51:14;;;;;;;8.35;5.88;;;;;;;;;;4959102;28;89775;-84
2024/04/12 20:53:57;;;;;;;8.63;6.10;;;;;;;;;;4974201;28;86406;-83
2024/04/12 20:56:47;;;;;;;7.50;5.40;;;;;;;;;;4924819;28;86723;-84
2024/04/12 20:59:23;;;;;;;8.13;5.63;;;;;;;;;;4933568;28;89844;-84
2024/04/12 21:01:56;;;;;;;7.93;5.90;;;;;;;;;;4979730;28;88686;-85
2024/04/12 21:04:32;;;;;;;7.75;5.55;;;;;;;;;;4965992;28;89064;-83
2024/04/12 21:07:21;;;;;;;8.15;5.20;;;;;;;;;;4914582;28;89449;-82
2024/04/12 21:10:03;;;;;;;7.80;5.32;;;;;;;;;;4937710;28;90861;-84
2024/04/12 21:12:37;;;;;;;8.35;4.95;;;;;;;;;;4930709;28;89559;-84
2024/04/12 21:15:08;;;;;;;8.25;5.28;;;;;;;;;;4957599;28;88832;-82
2024/04/12 21:17:47;;;;;;;9.30;5.63;;;;;;;;;;4944398;28;89755;-84
2024/04/12 21:20:25;;;;;;;7.20;4.50;;;;;;;;;;4956002;28;89407;-84
2024/04/12 21:23:15;;;;;;;7.60;5.13;;;;;;;;;;4948704;28;86211;-83
2024/04/12 21:26:08;;;;;;;8.75;5.63;;;;;;;;;;4934280;28;87531;-82
2024/04/12 21:28:38;;;;;;;8.70;5.60;;;;;;;;;;4950352;28;89175;-83
2024/04/12 21:31:16;;;;;;;7.65;5.03;;;;;;;;;;4941135;28;88405;-85
2024/04/12 21:33:52;;;;;;;8.30;5.03;;;;;;;;;;4948985;28;88245;-85
2024/04/12 21:36:34;;;;;;;9.43;5.00;;;;;;;;;;4951300;28;88239;-85
2024/04/12 21:39:11;;;;;;;7.97;5.20;;;;;;;;;;4954251;28;87078;-85
2024/04/12 21:41:40;;;;;;;8.18;4.80;;;;;;;;;;4924183;28;86236;-84
2024/04/12 21:44:17;;;;;;;7.97;4.78;;;;;;;;;;4923410;28;86214;-84
2024/04/12 21:47:15;;;;;;;8.38;4.88;;;;;;;;;;4963829;23;88909;-82
2024/04/12 21:49:58;;;;;;;6.93;4.30;;;;;;;;;;4953520;28;90277;-82
2024/04/12 21:52:31;;;;;;;8.32;5.18;;;;;;;;;;4991861;28;86527;-84
2024/04/12 21:55:07;;;;;;;9.02;5.13;;;;;;;;;;4958608;28;89337;-83
2024/04/12 21:57:43;;;;;;;8.98;5.80;;;;;;;;;;5004628;28;85903;-84
2024/04/12 22:00:16;;;;;;;10.50;5.95;;;;;;;;;;4981850;28;87814;-83
2024/04/12 22:02:49;;;;;;;10.40;6.60;;;;;;;;;;4966127;27;88465;-83
2024/04/12 22:05:27;;;;;;;9.32;5.90;;;;;;;;;;4975714;28;86966;-84
2024/04/12 22:07:58;;;;;;;11.10;6.30;;;;;;;;;;5007589;28;87775;-82
2024/04/12 22:10:32;;;;;;;9.40;5.80;;;;;;;;;;5019762;27;86794;-83
2024/04/12 22:13:16;;;;;;;9.52;5.43;;;;;;;;;;4948870;28;88084;-84
2024/04/12 22:15:56;;;;;;;9.00;5.53;;;;;;;;;;4958533;28;89179;-83
2024/04/12 22:18:37;;;;;;;10.63;4.90;;;;;;;;;;4987722;28;89850;-83
2024/04/12 22:21:16;;;;;;;11.88;5.55;;;;;;;;;;5001331;28;85919;-84
2024/04/12 22:24:03;;;;;;;9.93;5.63;;;;;;;;;;4967569;28;93019;-84
2024/04/12 22:26:44;;;;;;;9.40;4.90;;;;;;;;;;4985601;28;86937;-83
2024/04/12 22:29:14;;;;;;;9.95;5.57;;;;;;;;;;4968990;28;87094;-84
2024/04/12 22:31:43;;;;;;;8.15;4.97;;;;;;;;;;5018478;27;89072;-85
2024/04/12 22:34:24;;;;;;;10.75;5.78;;;;;;;;;;4958754;28;88197;-85
2024/04/12 22:37:17;;;;;;;9.45;5.00;;;;;;;;;;4964296;28;88560;-82
2024/04/12 22:39:52;;;;;;;9.40;5.20;;;;;;;;;;5005973;28;87325;-82